Time;durP1;ratioP1;P1;durP2;ratioP2;P2;SDS_P1;SDS_P2;PMS_P1;PMS_P2;Temp;Humidity;BMP_temperature;BMP_pressure;BME280_temperature;BME280_humidity;BME280_pressure;Samples;Min_cycle;Max_cycle;Signal;HPM_P1;HPM_P2
2021/07/29 00:00:36;;;;;;;7.85;3.03;;;16.60;81.10;;;;;;5073620;28;20025;-76
2021/07/29 00:03:02;;;;;;;6.82;3.53;;;16.50;81.00;;;;;;5072328;28;20036;-76
2021/07/29 00:05:29;;;;;;;5.70;2.85;;;16.50;81.20;;;;;;5072159;28;20413;-76
2021/07/29 00:07:55;;;;;;;9.70;3.70;;;16.40;81.50;;;;;;5072488;28;20028;-75
2021/07/29 00:10:21;;;;;;;9.32;3.42;;;16.40;81.40;;;;;;5072399;28;20029;-77
2021/07/29 00:12:47;;;;;;;7.13;2.78;;;16.40;81.40;;;;;;5074139;28;20423;-76
2021/07/29 00:15:15;;;;;;;7.32;3.30;;;16.40;81.60;;;;;;5073509;28;20104;-77
2021/07/29 00:20:27;;;;;;;9.30;3.75;;;16.40;81.30;;;;;;5073813;28;20029;-78
2021/07/29 00:22:56;;;;;;;12.68;3.38;;;16.40;81.20;;;;;;5072265;28;20031;-77
2021/07/29 00:25:23;;;;;;;8.05;2.75;;;16.40;81.20;;;;;;5073315;28;20063;-77
2021/07/29 00:27:50;;;;;;;6.35;2.80;;;16.30;81.20;;;;;;5073394;28;20032;-76
2021/07/29 00:30:17;;;;;;;12.95;3.97;;;16.40;81.40;;;;;;5071965;28;20029;-76
2021/07/29 00:32:43;;;;;;;5.63;2.83;;;16.30;80.90;;;;;;5073681;28;20403;-77
2021/07/29 00:35:15;;;;;;;7.30;2.63;;;16.30;81.10;;;;;;5071400;28;20028;-77
2021/07/29 00:37:41;;;;;;;7.38;2.88;;;16.40;81.10;;;;;;5074271;28;20029;-77
2021/07/29 00:40:07;;;;;;;7.63;2.67;;;16.30;80.80;;;;;;5072580;28;20025;-76
2021/07/29 00:42:33;;;;;;;7.28;2.30;;;16.30;80.40;;;;;;5072492;28;20544;-76
2021/07/29 00:44:58;;;;;;;6.97;2.30;;;16.20;80.80;;;;;;5072963;28;20115;-76
2021/07/29 00:47:25;;;;;;;5.45;2.58;;;16.30;80.40;;;;;;5071306;28;20473;-76
2021/07/29 00:49:51;;;;;;;7.22;2.70;;;16.20;80.70;;;;;;5072508;28;20358;-76
2021/07/29 00:52:20;;;;;;;9.52;3.85;;;16.20;80.60;;;;;;5072277;28;20461;-76
2021/07/29 00:54:46;;;;;;;6.40;3.05;;;16.20;80.80;;;;;;5072615;28;20016;-75
2021/07/29 00:57:12;;;;;;;8.68;2.60;;;16.20;81.00;;;;;;5073083;28;20461;-77
2021/07/29 00:59:39;;;;;;;9.80;3.20;;;16.20;81.30;;;;;;5073353;28;20059;-76
2021/07/29 01:02:05;;;;;;;9.07;2.65;;;16.10;81.20;;;;;;5072838;28;20030;-77
2021/07/29 01:04:30;;;;;;;9.25;3.40;;;16.10;81.30;;;;;;5072338;28;20111;-76
2021/07/29 01:06:56;;;;;;;6.68;2.65;;;16.10;81.40;;;;;;5071653;28;20105;-76
2021/07/29 01:09:22;;;;;;;8.95;2.92;;;16.00;81.60;;;;;;5072988;28;20021;-76
2021/07/29 01:11:48;;;;;;;6.45;2.53;;;16.00;81.50;;;;;;5077896;28;20078;-77
2021/07/29 01:14:15;;;;;;;7.35;2.90;;;16.00;81.60;;;;;;5082773;28;20028;-76
2021/07/29 01:16:41;;;;;;;7.70;2.75;;;16.00;82.00;;;;;;5079060;28;20066;-76
2021/07/29 01:19:07;;;;;;;8.88;2.60;;;15.90;81.90;;;;;;5073632;28;20535;-76
2021/07/29 01:21:33;;;;;;;12.45;3.55;;;15.90;82.10;;;;;;5070977;28;20021;-76
2021/07/29 01:23:59;;;;;;;9.13;3.53;;;15.90;81.90;;;;;;5073219;28;20111;-76
2021/07/29 01:26:29;;;;;;;5.75;2.47;;;15.80;81.90;;;;;;5073186;28;20029;-76
2021/07/29 01:28:56;;;;;;;7.32;3.00;;;15.90;82.50;;;;;;5073112;28;20020;-77
2021/07/29 01:31:21;;;;;;;11.52;2.95;;;15.90;82.10;;;;;;5071279;28;20378;-77
2021/07/29 01:33:47;;;;;;;9.40;3.13;;;15.90;82.30;;;;;;5071940;28;20032;-77
2021/07/29 01:36:13;;;;;;;10.45;2.67;;;15.90;82.10;;;;;;5072317;28;20496;-78
2021/07/29 01:38:39;;;;;;;9.00;3.10;;;15.90;82.10;;;;;;5091836;28;20008;-77
2021/07/29 01:41:05;;;;;;;9.50;2.78;;;15.90;82.00;;;;;;5077793;28;20373;-77
2021/07/29 01:43:31;;;;;;;7.85;3.05;;;15.90;82.00;;;;;;5071272;28;20027;-77
2021/07/29 01:45:58;;;;;;;11.27;2.50;;;15.90;82.10;;;;;;5071030;28;20029;-77
2021/07/29 01:48:24;;;;;;;10.90;3.35;;;15.90;82.10;;;;;;5070996;28;20423;-77
2021/07/29 01:50:50;;;;;;;7.38;2.35;;;15.90;82.10;;;;;;5071223;28;20013;-77
2021/07/29 01:53:15;;;;;;;6.80;2.72;;;15.90;82.50;;;;;;5072644;28;20037;-78
2021/07/29 01:55:48;;;;;;;9.48;2.75;;;15.90;82.10;;;;;;5073688;28;20100;-76
2021/07/29 01:58:15;;;;;;;8.43;2.70;;;15.90;82.10;;;;;;5073200;28;20025;-76
2021/07/29 02:00:46;;;;;;;6.25;2.50;;;15.90;82.30;;;;;;5072314;28;20392;-77
2021/07/29 02:03:13;;;;;;;9.63;2.47;;;15.90;82.00;;;;;;5072450;28;20028;-77
2021/07/29 02:05:38;;;;;;;6.85;2.90;;;15.90;82.10;;;;;;5072400;28;20044;-77
2021/07/29 02:08:04;;;;;;;8.85;3.10;;;15.90;82.20;;;;;;5070727;28;20101;-77
2021/07/29 02:10:30;;;;;;;10.98;2.80;;;15.90;82.20;;;;;;5070504;28;20461;-78
2021/07/29 02:12:57;;;;;;;12.98;3.58;;;15.80;82.20;;;;;;5071650;28;20198;-77
2021/07/29 02:15:22;;;;;;;13.93;3.50;;;15.90;82.40;;;;;;5070417;28;20012;-77
2021/07/29 02:17:48;;;;;;;12.65;3.08;;;15.80;82.30;;;;;;5071767;28;20116;-76
2021/07/29 02:20:14;;;;;;;6.75;2.85;;;15.80;82.60;;;;;;5071794;28;20454;-77
2021/07/29 02:22:41;;;;;;;11.07;3.13;;;15.80;82.60;;;;;;5071844;28;20040;-76
2021/07/29 02:25:07;;;;;;;11.70;3.00;;;15.70;82.70;;;;;;5071700;28;20447;-76
2021/07/29 02:27:34;;;;;;;10.23;3.08;;;15.70;82.90;;;;;;5070719;28;20115;-77
2021/07/29 02:30:00;;;;;;;10.52;2.88;;;15.60;83.00;;;;;;5071790;28;20024;-77
2021/07/29 02:32:26;;;;;;;11.75;2.92;;;15.60;83.10;;;;;;5079330;28;20095;-77
2021/07/29 02:34:52;;;;;;;10.25;3.25;;;15.60;83.20;;;;;;5081878;28;20121;-76
2021/07/29 02:37:19;;;;;;;7.90;2.42;;;15.60;83.30;;;;;;5076275;28;20020;-76
2021/07/29 02:39:44;;;;;;;11.70;3.13;;;15.60;83.60;;;;;;5074612;28;20158;-76
2021/07/29 02:42:10;;;;;;;8.90;3.13;;;15.60;83.70;;;;;;5074000;28;20107;-77
2021/07/29 02:44:36;;;;;;;11.13;2.97;;;15.50;83.60;;;;;;5075211;28;20501;-77
2021/07/29 02:47:02;;;;;;;11.23;2.95;;;15.50;83.70;;;;;;5073801;28;20025;-77
2021/07/29 02:49:27;;;;;;;11.40;3.92;;;15.50;83.70;;;;;;5075312;28;20052;-77
2021/07/29 02:51:53;;;;;;;7.20;2.83;;;15.50;83.90;;;;;;5075081;28;20029;-77
2021/07/29 02:54:19;;;;;;;12.20;3.08;;;15.40;83.90;;;;;;5075104;28;20393;-77
2021/07/29 02:56:44;;;;;;;9.65;2.83;;;15.40;84.00;;;;;;5076179;28;20024;-76
2021/07/29 02:59:10;;;;;;;11.63;3.45;;;15.40;84.10;;;;;;5075285;28;20024;-76
2021/07/29 03:01:36;;;;;;;9.85;2.92;;;15.40;84.20;;;;;;5081197;28;20041;-76
2021/07/29 03:04:01;;;;;;;15.23;3.50;;;15.40;84.30;;;;;;5084015;28;20024;-76
2021/07/29 03:06:27;;;;;;;8.93;3.08;;;15.40;84.30;;;;;;5080813;28;20029;-76
2021/07/29 03:08:53;;;;;;;9.45;3.00;;;15.40;84.30;;;;;;5074633;28;20595;-76
2021/07/29 03:11:19;;;;;;;13.75;2.95;;;15.40;84.50;;;;;;5073407;28;20029;-76
2021/07/29 03:13:45;;;;;;;11.27;3.33;;;15.40;84.40;;;;;;5073922;28;20052;-75
2021/07/29 03:16:10;;;;;;;10.55;3.03;;;15.40;84.70;;;;;;5075156;28;20353;-78
2021/07/29 03:18:36;;;;;;;8.82;3.70;;;15.40;84.70;;;;;;5074610;28;20024;-77
2021/07/29 03:21:01;;;;;;;12.10;3.13;;;15.40;84.70;;;;;;5074952;28;20039;-76
2021/07/29 03:23:27;;;;;;;10.73;2.97;;;15.40;84.60;;;;;;5072995;28;20063;-75
2021/07/29 03:25:54;;;;;;;14.52;3.53;;;15.50;84.60;;;;;;5075550;28;20107;-76
2021/07/29 03:28:20;;;;;;;13.50;3.30;;;15.50;84.70;;;;;;5075225;28;20020;-76
2021/07/29 03:30:46;;;;;;;8.82;2.72;;;15.50;84.70;;;;;;5073990;28;20024;-77
2021/07/29 03:33:12;;;;;;;12.75;4.13;;;15.50;84.80;;;;;;5075274;28;20377;-77
2021/07/29 03:35:39;;;;;;;12.43;3.60;;;15.50;84.80;;;;;;5074925;28;20438;-77
2021/07/29 03:38:06;;;;;;;11.95;4.05;;;15.50;84.80;;;;;;5074024;28;20025;-77
2021/07/29 03:40:32;;;;;;;15.43;3.28;;;15.50;84.80;;;;;;5075694;28;20063;-77
2021/07/29 03:43:01;;;;;;;15.98;3.83;;;15.50;84.70;;;;;;5091868;28;20040;-77
2021/07/29 03:45:31;;;;;;;10.52;3.22;;;15.50;85.00;;;;;;5078401;28;20027;-77
2021/07/29 03:47:57;;;;;;;16.08;3.42;;;15.50;84.90;;;;;;5073278;28;20044;-77
2021/07/29 03:50:22;;;;;;;9.98;3.38;;;15.50;84.90;;;;;;5073138;28;20023;-77
2021/07/29 03:52:48;;;;;;;16.50;3.97;;;15.60;84.90;;;;;;5072905;28;20025;-77
2021/07/29 03:55:14;;;;;;;12.35;3.83;;;15.60;85.20;;;;;;5072891;28;20107;-77
2021/07/29 03:57:39;;;;;;;14.60;4.00;;;15.60;85.30;;;;;;5072770;28;20024;-77
2021/07/29 04:00:06;;;;;;;20.27;3.83;;;15.60;85.30;;;;;;5074342;28;20052;-76
2021/07/29 04:02:33;;;;;;;13.63;3.58;;;15.60;85.20;;;;;;5073229;28;20036;-77
2021/07/29 04:04:58;;;;;;;13.63;3.60;;;15.60;85.10;;;;;;5073635;28;20036;-77
2021/07/29 04:07:24;;;;;;;13.18;3.45;;;15.60;85.40;;;;;;5073694;28;20066;-76
2021/07/29 04:09:50;;;;;;;16.58;4.75;;;15.60;85.60;;;;;;5073749;28;20373;-76
2021/07/29 04:12:16;;;;;;;11.57;3.80;;;15.60;85.80;;;;;;5072214;28;20017;-76
2021/07/29 04:14:42;;;;;;;15.13;4.20;;;15.60;86.20;;;;;;5072169;28;20522;-76
2021/07/29 04:17:08;;;;;;;13.10;4.22;;;15.60;86.50;;;;;;5072228;28;20123;-76
2021/07/29 04:19:34;;;;;;;16.75;3.75;;;15.70;87.20;;;;;;5071759;28;20109;-76
2021/07/29 04:22:01;;;;;;;15.43;3.75;;;15.60;86.60;;;;;;5073520;28;20025;-76
2021/07/29 04:24:28;;;;;;;7.22;2.55;;;15.60;86.80;;;;;;5073289;28;20028;-76
2021/07/29 04:26:54;;;;;;;9.90;2.83;;;15.60;86.30;;;;;;5073113;28;20029;-74
2021/07/29 04:29:20;;;;;;;12.27;3.00;;;15.60;86.90;;;;;;5071738;28;20025;-73
2021/07/29 04:31:46;;;;;;;20.55;5.13;;;15.60;86.70;;;;;;5073132;28;20024;-73
2021/07/29 04:34:11;;;;;;;15.23;3.90;;;15.70;89.60;;;;;;5071841;28;20052;-74
2021/07/29 04:36:41;;;;;;;14.00;4.35;;;15.60;89.00;;;;;;5071681;28;20108;-75
2021/07/29 04:39:07;;;;;;;22.87;5.00;;;15.50;89.90;;;;;;5072782;28;20456;-78
2021/07/29 04:41:37;;;;;;;12.07;4.45;;;15.40;90.20;;;;;;5074166;28;20293;-75
2021/07/29 04:44:03;;;;;;;11.93;4.23;;;15.30;90.10;;;;;;5073929;28;20070;-74
2021/07/29 04:46:28;;;;;;;23.65;5.57;;;15.30;90.40;;;;;;5072323;28;20275;-75
2021/07/29 04:48:54;;;;;;;15.45;4.25;;;15.30;90.70;;;;;;5076188;28;20028;-75
2021/07/29 04:51:19;;;;;;;12.27;4.40;;;15.20;90.70;;;;;;5078166;28;20040;-74
2021/07/29 04:53:45;;;;;;;13.10;4.60;;;15.20;90.60;;;;;;5078194;28;20028;-75
2021/07/29 04:56:10;;;;;;;13.45;3.70;;;15.20;90.50;;;;;;5073284;28;20025;-76
2021/07/29 04:58:36;;;;;;;17.92;4.07;;;15.10;90.50;;;;;;5072752;28;20035;-76
2021/07/29 05:01:05;;;;;;;14.80;4.45;;;15.10;90.40;;;;;;5071516;28;20093;-75
2021/07/29 05:03:31;;;;;;;17.58;4.40;;;15.10;90.60;;;;;;5072494;28;20039;-76
2021/07/29 05:05:56;;;;;;;15.63;4.25;;;15.20;90.70;;;;;;5072821;28;20033;-75
2021/07/29 05:08:22;;;;;;;22.33;4.50;;;15.20;90.70;;;;;;5071082;28;20074;-75
2021/07/29 05:10:47;;;;;;;20.40;4.22;;;15.20;90.50;;;;;;5072944;28;20484;-75
2021/07/29 05:13:13;;;;;;;14.52;4.00;;;15.30;90.20;;;;;;5071861;28;20077;-76
2021/07/29 05:15:38;;;;;;;18.10;4.47;;;15.30;90.40;;;;;;5075378;28;20031;-76
2021/07/29 05:18:04;;;;;;;21.27;4.97;;;15.40;90.40;;;;;;5073371;28;20107;-77
2021/07/29 05:20:30;;;;;;;13.30;3.97;;;15.40;90.50;;;;;;5071242;28;20047;-76
2021/07/29 05:22:55;;;;;;;15.20;4.38;;;15.50;90.40;;;;;;5070742;28;20039;-74
2021/07/29 05:25:23;;;;;;;16.23;4.18;;;15.50;90.40;;;;;;5071090;28;20017;-75
2021/07/29 05:27:53;;;;;;;13.20;4.38;;;15.60;90.10;;;;;;5072849;28;20380;-75
2021/07/29 05:30:19;;;;;;;18.25;5.63;;;15.70;90.10;;;;;;5072587;28;20028;-76
2021/07/29 05:32:45;;;;;;;13.80;4.70;;;15.70;89.60;;;;;;5072129;28;20025;-76
2021/07/29 05:35:11;;;;;;;16.10;4.43;;;15.80;90.10;;;;;;5072357;28;20029;-75
2021/07/29 05:37:37;;;;;;;15.55;4.90;;;15.80;89.60;;;;;;5070911;28;20024;-75
2021/07/29 05:40:07;;;;;;;13.32;3.88;;;15.90;89.50;;;;;;5071535;28;20048;-74
2021/07/29 05:42:33;;;;;;;17.87;4.97;;;16.00;88.50;;;;;;5071267;28;20368;-76
2021/07/29 05:44:59;;;;;;;18.38;4.75;;;16.10;88.80;;;;;;5073028;28;20829;-76
2021/07/29 05:47:27;;;;;;;16.00;4.50;;;16.10;88.40;;;;;;5088178;28;20027;-76
2021/07/29 05:49:53;;;;;;;14.75;3.80;;;16.00;87.50;;;;;;5078737;28;20056;-76
2021/07/29 05:52:18;;;;;;;13.73;4.03;;;16.00;87.50;;;;;;5072158;28;20063;-76
2021/07/29 05:54:44;;;;;;;17.42;4.38;;;16.00;87.20;;;;;;5070625;28;20029;-76
2021/07/29 05:57:09;;;;;;;24.30;5.28;;;16.00;87.20;;;;;;5070909;28;20028;-77
2021/07/29 05:59:35;;;;;;;12.32;3.70;;;16.00;87.40;;;;;;5070814;28;20028;-76
2021/07/29 06:02:00;;;;;;;10.85;3.72;;;16.00;87.40;;;;;;5071691;28;20484;-75
2021/07/29 06:04:27;;;;;;;14.07;3.83;;;16.00;87.20;;;;;;5071547;28;20469;-76
2021/07/29 06:06:53;;;;;;;14.05;3.75;;;16.00;87.60;;;;;;5071781;28;20066;-76
2021/07/29 06:09:18;;;;;;;12.43;3.35;;;16.00;87.70;;;;;;5075016;28;20105;-75
2021/07/29 06:11:44;;;;;;;15.15;4.03;;;16.00;87.20;;;;;;5075354;28;20040;-75
2021/07/29 06:14:10;;;;;;;25.92;6.22;;;16.10;87.50;;;;;;5075828;28;20105;-76
2021/07/29 06:16:36;;;;;;;18.85;6.07;;;16.20;87.70;;;;;;5075932;28;20031;-75
2021/07/29 06:21:31;;;;;;;24.40;5.45;;;16.20;87.20;;;;;;5075428;28;20025;-76
2021/07/29 06:23:56;;;;;;;11.95;3.92;;;16.20;86.40;;;;;;5073930;28;20032;-77
2021/07/29 06:26:22;;;;;;;16.75;4.25;;;16.20;86.10;;;;;;5076216;28;20024;-77
2021/07/29 06:28:47;;;;;;;16.80;4.90;;;16.20;86.60;;;;;;5076383;28;20028;-76
2021/07/29 06:31:13;;;;;;;18.30;4.93;;;16.20;86.40;;;;;;5075769;28;20028;-75
2021/07/29 06:33:38;;;;;;;16.10;4.20;;;16.30;86.10;;;;;;5075547;28;20025;-76
2021/07/29 06:36:04;;;;;;;13.88;4.40;;;16.40;84.80;;;;;;5076483;28;20108;-75
2021/07/29 06:38:30;;;;;;;19.75;4.93;;;16.60;84.80;;;;;;5079191;28;20028;-76
2021/07/29 06:40:56;;;;;;;14.52;4.38;;;16.70;84.30;;;;;;5077752;28;20056;-76
2021/07/29 06:43:21;;;;;;;18.23;4.97;;;16.80;84.00;;;;;;5077939;28;20048;-76
2021/07/29 06:45:47;;;;;;;18.02;4.55;;;16.90;83.30;;;;;;5075775;28;20028;-77
2021/07/29 06:48:12;;;;;;;18.92;5.32;;;17.00;81.90;;;;;;5073671;28;20124;-76
2021/07/29 06:50:38;;;;;;;12.80;4.72;;;17.00;83.20;;;;;;5074983;28;20036;-76
2021/07/29 06:53:04;;;;;;;17.25;5.15;;;17.10;81.70;;;;;;5075194;28;20468;-75
2021/07/29 06:55:29;;;;;;;23.63;5.75;;;17.10;81.10;;;;;;5074992;28;20086;-75
2021/07/29 06:57:55;;;;;;;13.75;4.50;;;17.20;81.40;;;;;;5075015;28;20025;-75
2021/07/29 07:00:21;;;;;;;11.65;4.78;;;17.30;81.30;;;;;;5074716;28;20103;-77
2021/07/29 07:02:47;;;;;;;15.57;4.78;;;17.30;80.80;;;;;;5073728;28;20505;-77
2021/07/29 07:05:12;;;;;;;23.10;5.78;;;17.40;80.30;;;;;;5074666;28;20070;-77
2021/07/29 07:07:38;;;;;;;16.38;5.00;;;17.40;80.60;;;;;;5074758;28;20021;-76
2021/07/29 07:10:04;;;;;;;13.95;4.60;;;17.50;79.10;;;;;;5073489;28;20029;-76
2021/07/29 07:12:30;;;;;;;16.25;4.22;;;17.60;78.00;;;;;;5073032;28;20025;-77
2021/07/29 07:14:55;;;;;;;13.73;4.10;;;17.60;78.40;;;;;;5074723;28;20422;-76
2021/07/29 07:17:21;;;;;;;17.85;4.57;;;17.50;77.50;;;;;;5074527;28;20450;-75
2021/07/29 07:19:47;;;;;;;12.77;3.60;;;17.50;78.20;;;;;;5073030;28;20021;-77
2021/07/29 07:22:13;;;;;;;16.38;3.83;;;17.50;78.30;;;;;;5074807;28;20028;-76
2021/07/29 07:24:39;;;;;;;13.73;4.05;;;17.50;78.00;;;;;;5073208;28;20437;-76
2021/07/29 07:27:07;;;;;;;14.15;4.53;;;17.60;77.90;;;;;;5074812;28;20035;-77
2021/07/29 07:29:34;;;;;;;12.48;3.85;;;17.60;77.60;;;;;;5074338;28;20349;-78
2021/07/29 07:32:00;;;;;;;14.50;3.80;;;17.70;77.20;;;;;;5074651;28;20028;-77
2021/07/29 07:34:25;;;;;;;15.05;3.78;;;17.80;77.20;;;;;;5073423;28;20020;-76
2021/07/29 07:36:51;;;;;;;12.77;3.83;;;17.90;76.60;;;;;;5074437;28;20021;-77
2021/07/29 07:39:16;;;;;;;15.98;3.60;;;17.90;76.10;;;;;;5073133;28;20067;-76
2021/07/29 07:41:42;;;;;;;11.10;3.25;;;17.90;76.50;;;;;;5073123;28;20115;-76
2021/07/29 07:44:08;;;;;;;19.00;3.78;;;17.90;75.30;;;;;;5074906;28;20495;-76
2021/07/29 07:46:33;;;;;;;15.60;4.20;;;17.80;75.70;;;;;;5072765;28;20036;-76
2021/07/29 07:48:59;;;;;;;15.20;4.03;;;17.70;75.60;;;;;;5075255;28;20031;-76
2021/07/29 07:51:26;;;;;;;15.10;3.75;;;17.80;75.30;;;;;;5085711;28;20056;-77
2021/07/29 07:53:52;;;;;;;15.65;4.30;;;18.00;75.40;;;;;;5081635;28;20020;-77
2021/07/29 07:56:17;;;;;;;29.35;4.40;;;18.10;74.60;;;;;;5077637;28;20013;-79
2021/07/29 07:58:43;;;;;;;12.57;2.72;;;18.30;74.50;;;;;;5079278;28;20035;-78
2021/07/29 08:01:08;;;;;;;14.52;2.85;;;18.40;74.10;;;;;;5075007;28;20056;-77
2021/07/29 08:03:34;;;;;;;11.80;3.17;;;18.70;73.40;;;;;;5072271;28;20039;-77
2021/07/29 08:06:03;;;;;;;11.32;3.33;;;18.70;71.70;;;;;;5072462;28;20031;-78
2021/07/29 08:08:29;;;;;;;14.75;4.45;;;18.80;72.70;;;;;;5073728;28;20076;-78
2021/07/29 08:10:54;;;;;;;16.05;3.10;;;19.00;70.80;;;;;;5073227;28;20136;-77
2021/07/29 08:13:20;;;;;;;13.13;3.47;;;19.20;70.30;;;;;;5073583;28;20064;-77
2021/07/29 08:15:46;;;;;;;10.32;2.92;;;19.30;70.90;;;;;;5071950;28;20047;-76
2021/07/29 08:18:12;;;;;;;10.75;2.67;;;19.40;70.40;;;;;;5073538;28;20031;-76
2021/07/29 08:20:41;;;;;;;14.30;3.20;;;19.50;69.90;;;;;;5072041;28;20021;-77
2021/07/29 08:23:08;;;;;;;10.43;2.58;;;19.60;67.50;;;;;;5072020;28;20027;-76
2021/07/29 08:25:35;;;;;;;10.93;3.80;;;19.70;68.70;;;;;;5071860;28;20032;-76
2021/07/29 08:28:01;;;;;;;8.15;3.13;;;19.80;66.10;;;;;;5076449;28;20024;-76
2021/07/29 08:30:27;;;;;;;10.27;2.47;;;19.80;69.50;;;;;;5078210;28;20028;-77
2021/07/29 08:32:52;;;;;;;14.25;3.38;;;20.00;67.60;;;;;;5078825;28;20052;-77
2021/07/29 08:35:18;;;;;;;8.00;2.15;;;20.10;66.10;;;;;;5072028;28;20050;-76
2021/07/29 08:37:47;;;;;;;8.68;2.25;;;20.30;65.80;;;;;;5071624;28;20020;-76
2021/07/29 08:40:19;;;;;;;11.23;2.50;;;20.30;66.10;;;;;;5073542;28;20048;-76
2021/07/29 08:42:46;;;;;;;11.02;2.80;;;20.10;67.60;;;;;;5072090;28;20078;-78
2021/07/29 08:45:12;;;;;;;10.00;2.50;;;19.90;64.10;;;;;;5073060;28;20029;-77
2021/07/29 08:47:43;;;;;;;11.63;2.97;;;19.90;63.00;;;;;;5073172;28;20033;-78
2021/07/29 08:50:10;;;;;;;12.02;2.47;;;19.90;62.70;;;;;;5071425;28;20020;-77
2021/07/29 08:52:35;;;;;;;12.43;2.95;;;20.00;62.40;;;;;;5073005;28;20021;-77
2021/07/29 08:55:01;;;;;;;7.32;2.30;;;20.20;62.50;;;;;;5073379;28;20078;-77
2021/07/29 08:57:32;;;;;;;13.02;3.15;;;20.40;63.00;;;;;;5071451;28;20029;-76
2021/07/29 09:00:05;;;;;;;12.75;3.38;;;20.60;62.00;;;;;;5073087;28;20111;-77
2021/07/29 09:02:31;;;;;;;10.23;2.72;;;20.60;60.50;;;;;;5072814;28;20037;-75
2021/07/29 09:05:12;;;;;;;10.55;2.78;;;20.50;61.30;;;;;;5071244;28;20431;-77
2021/07/29 09:07:39;;;;;;;14.77;3.17;;;20.60;61.90;;;;;;5072414;28;20495;-77
2021/07/29 09:10:22;;;;;;;10.52;2.25;;;20.60;60.80;;;;;;5071313;28;20016;-78
2021/07/29 09:13:18;;;;;;;15.13;3.40;;;20.70;61.70;;;;;;5071133;28;20135;-78
2021/07/29 09:15:45;;;;;;;10.48;2.83;;;20.80;59.20;;;;;;5064377;28;20028;-77
2021/07/29 09:18:18;;;;;;;9.73;2.45;;;20.80;58.40;;;;;;5071614;28;20021;-77
2021/07/29 09:20:45;;;;;;;13.98;3.00;;;20.50;59.20;;;;;;5071135;28;20107;-77
2021/07/29 09:23:14;;;;;;;11.77;2.58;;;20.50;61.20;;;;;;5071453;28;20429;-78
2021/07/29 09:25:40;;;;;;;11.90;3.63;;;20.60;61.60;;;;;;5071236;28;20373;-78
2021/07/29 09:28:07;;;;;;;9.25;2.70;;;20.60;60.40;;;;;;5072386;28;20345;-77
2021/07/29 09:30:33;;;;;;;15.38;2.92;;;20.60;60.10;;;;;;5070526;28;20050;-77
2021/07/29 09:33:13;;;;;;;6.00;1.95;;;20.70;59.30;;;;;;5069843;28;20465;-78
2021/07/29 09:35:46;;;;;;;14.07;2.35;;;20.80;58.10;;;;;;5068226;28;20036;-77
2021/07/29 09:38:25;;;;;;;10.50;2.10;;;20.80;56.60;;;;;;5068554;28;20020;-77
2021/07/29 09:41:01;;;;;;;12.48;2.40;;;20.70;56.20;;;;;;5071869;28;20095;-77
2021/07/29 09:43:30;;;;;;;10.75;2.53;;;20.60;57.90;;;;;;5074040;28;20060;-76
2021/07/29 09:46:04;;;;;;;12.27;2.80;;;20.50;59.70;;;;;;5075295;28;20063;-77
2021/07/29 09:48:30;;;;;;;10.23;2.83;;;20.60;58.10;;;;;;5076359;28;20024;-78
2021/07/29 09:51:01;;;;;;;8.13;1.77;;;20.90;56.60;;;;;;5076685;28;20024;-76
2021/07/29 09:53:33;;;;;;;8.23;2.20;;;20.90;57.10;;;;;;5092875;28;20025;-78
2021/07/29 09:55:59;;;;;;;7.03;2.35;;;20.80;59.80;;;;;;5088292;28;20050;-77
2021/07/29 09:58:25;;;;;;;11.98;2.97;;;20.70;59.70;;;;;;5076598;28;20024;-77
2021/07/29 10:00:50;;;;;;;8.95;2.65;;;20.60;58.60;;;;;;5075223;28;20024;-77
2021/07/29 10:03:21;;;;;;;16.65;3.15;;;20.60;60.50;;;;;;5075195;28;20123;-77
2021/07/29 10:05:54;;;;;;;8.45;1.80;;;20.70;59.50;;;;;;5074747;28;20051;-77
2021/07/29 10:08:38;;;;;;;14.88;3.50;;;20.60;62.40;;;;;;5076491;28;20020;-77
2021/07/29 10:11:16;;;;;;;10.35;2.80;;;20.50;58.90;;;;;;5076365;28;20049;-78
2021/07/29 10:13:42;;;;;;;9.65;2.72;;;20.30;59.80;;;;;;5076072;28;20028;-77
2021/07/29 10:16:09;;;;;;;10.60;2.88;;;20.20;60.00;;;;;;5075660;28;20021;-77
2021/07/29 10:18:50;;;;;;;9.98;2.40;;;20.10;60.60;;;;;;5080161;28;20056;-76
2021/07/29 10:21:25;;;;;;;9.25;2.75;;;20.10;61.20;;;;;;5088129;28;20020;-77
2021/07/29 10:23:52;;;;;;;8.13;2.83;;;20.20;61.30;;;;;;5082475;28;20032;-78
2021/07/29 10:26:18;;;;;;;10.75;2.33;;;20.40;60.40;;;;;;5077191;28;20528;-77
2021/07/29 10:28:43;;;;;;;12.43;2.65;;;20.40;58.80;;;;;;5076028;28;20054;-77
2021/07/29 10:31:10;;;;;;;11.32;2.97;;;20.40;59.40;;;;;;5075812;28;20027;-77
2021/07/29 10:33:36;;;;;;;10.40;2.55;;;20.30;62.10;;;;;;5074669;28;20465;-76
2021/07/29 10:36:03;;;;;;;10.10;2.70;;;20.20;61.50;;;;;;5075399;28;20181;-77
2021/07/29 10:38:39;;;;;;;14.63;3.70;;;20.00;63.10;;;;;;5080136;28;20024;-78
2021/07/29 10:41:20;;;;;;;10.23;2.92;;;19.80;64.60;;;;;;5080515;28;20025;-77
2021/07/29 10:43:46;;;;;;;12.88;2.65;;;19.70;66.50;;;;;;5075303;28;20097;-76
2021/07/29 10:46:11;;;;;;;11.68;2.90;;;19.60;66.60;;;;;;5075558;28;20516;-77
2021/07/29 10:48:47;;;;;;;12.93;3.65;;;19.50;67.80;;;;;;5074912;28;20025;-75
2021/07/29 10:51:23;;;;;;;16.00;5.10;;;19.30;68.20;;;;;;5074932;28;20020;-74
2021/07/29 10:53:57;;;;;;;10.90;4.15;;;18.90;74.20;;;;;;5073629;28;20445;-75
2021/07/29 10:56:24;;;;;;;11.70;3.65;;;18.30;76.80;;;;;;5073992;28;20017;-74
2021/07/29 10:58:55;;;;;;;13.27;4.25;;;17.90;79.10;;;;;;5073506;28;20029;-75
2021/07/29 11:01:21;;;;;;;13.50;4.28;;;17.50;79.60;;;;;;5073823;28;20021;-77
2021/07/29 11:03:58;;;;;;;15.10;4.18;;;17.40;82.20;;;;;;5073541;28;20469;-76
2021/07/29 11:06:24;;;;;;;11.35;5.35;;;17.40;82.80;;;;;;5073861;28;20040;-76
2021/07/29 11:08:53;;;;;;;14.07;4.28;;;17.70;85.50;;;;;;5073648;28;20089;-76
2021/07/29 11:11:19;;;;;;;12.18;4.47;;;18.20;83.90;;;;;;5073768;28;20113;-76
2021/07/29 11:13:46;;;;;;;13.73;3.92;;;18.60;80.00;;;;;;5073551;28;20059;-75
2021/07/29 11:16:12;;;;;;;11.90;4.57;;;19.10;78.40;;;;;;5073543;28;20384;-77
2021/07/29 11:18:38;;;;;;;15.05;4.75;;;19.40;78.60;;;;;;5073430;28;20111;-77
2021/07/29 11:21:13;;;;;;;17.55;5.00;;;19.70;74.90;;;;;;5075155;28;20109;-76
2021/07/29 11:23:39;;;;;;;16.08;4.72;;;20.00;76.00;;;;;;5075036;28;20028;-76
2021/07/29 11:26:06;;;;;;;14.35;4.20;;;20.00;75.80;;;;;;5073168;28;20044;-76
2021/07/29 11:28:32;;;;;;;9.98;3.45;;;19.80;72.70;;;;;;5074632;28;20078;-77
2021/07/29 11:30:58;;;;;;;11.95;3.85;;;19.60;72.20;;;;;;5073360;28;20048;-77
2021/07/29 11:33:25;;;;;;;13.15;3.28;;;19.50;73.10;;;;;;5073292;28;20020;-77
2021/07/29 11:35:52;;;;;;;15.40;3.58;;;19.40;70.60;;;;;;5073454;28;20028;-77
2021/07/29 11:38:20;;;;;;;13.18;3.28;;;19.30;71.40;;;;;;5073328;28;20469;-77
2021/07/29 11:40:46;;;;;;;18.83;4.20;;;19.30;70.90;;;;;;5074707;28;20030;-78
2021/07/29 11:43:22;;;;;;;17.20;4.13;;;19.10;70.50;;;;;;5074513;28;20111;-79
2021/07/29 11:45:48;;;;;;;10.15;2.83;;;19.00;72.10;;;;;;5073098;28;20060;-78
2021/07/29 11:48:23;;;;;;;12.40;3.50;;;19.00;72.20;;;;;;5073284;28;20059;-78
2021/07/29 11:50:50;;;;;;;9.32;2.67;;;19.00;70.50;;;;;;5073661;28;20480;-78
2021/07/29 11:53:17;;;;;;;11.45;2.95;;;19.00;72.20;;;;;;5074946;28;20048;-79
2021/07/29 11:55:54;;;;;;;13.10;3.03;;;19.20;72.20;;;;;;5075772;28;20033;-79
2021/07/29 11:58:20;;;;;;;12.40;3.17;;;19.40;70.10;;;;;;5091492;28;20029;-78
2021/07/29 12:00:46;;;;;;;17.60;4.70;;;19.60;69.90;;;;;;5077472;28;20032;-79
2021/07/29 12:03:27;;;;;;;9.05;2.95;;;20.00;68.80;;;;;;5075199;28;20159;-78
2021/07/29 12:05:54;;;;;;;12.75;3.42;;;20.50;69.40;;;;;;5077328;28;20021;-79
2021/07/29 12:08:20;;;;;;;8.93;3.38;;;20.90;65.00;;;;;;5084468;28;20021;-78
2021/07/29 12:10:46;;;;;;;12.27;2.92;;;21.10;65.40;;;;;;5087336;28;20054;-78
2021/07/29 12:13:13;;;;;;;8.82;2.97;;;21.30;65.00;;;;;;5079178;28;20063;-78
2021/07/29 12:15:39;;;;;;;14.40;3.80;;;21.40;63.40;;;;;;5073602;28;20504;-79
2021/07/29 12:18:18;;;;;;;11.02;3.35;;;21.50;64.00;;;;;;5075029;28;20020;-79
2021/07/29 12:20:48;;;;;;;10.35;3.78;;;21.70;63.30;;;;;;5073426;28;20385;-80
2021/07/29 12:23:15;;;;;;;12.15;3.40;;;21.90;60.40;;;;;;5074964;28;20097;-78
2021/07/29 12:25:41;;;;;;;14.05;3.53;;;21.90;60.80;;;;;;5072723;28;20045;-80
2021/07/29 12:28:07;;;;;;;9.82;3.00;;;21.90;60.10;;;;;;5074710;28;20084;-80
2021/07/29 12:30:43;;;;;;;11.05;3.40;;;21.90;58.40;;;;;;5073390;28;20097;-81
2021/07/29 12:33:24;;;;;;;9.10;2.92;;;22.00;58.80;;;;;;5073646;28;20037;-78
2021/07/29 12:35:58;;;;;;;13.18;3.08;;;22.30;60.90;;;;;;5073437;28;20028;-77
2021/07/29 12:38:37;;;;;;;15.15;2.92;;;22.30;57.50;;;;;;5073271;28;20052;-77
2021/07/29 12:41:13;;;;;;;12.85;3.53;;;22.00;56.40;;;;;;5071860;28;20072;-73
2021/07/29 12:43:39;;;;;;;9.18;2.83;;;21.70;58.00;;;;;;5071891;28;20052;-77
2021/07/29 12:46:07;;;;;;;8.30;3.05;;;21.40;61.20;;;;;;5073563;28;20436;-76